createdAt,value
2023-05-23T00:01:39.922Z,17.51
2023-05-23T00:04:06.832Z,17.47
2023-05-23T00:06:34.407Z,17.35
2023-05-23T00:09:01.132Z,17.33
2023-05-23T00:11:29.118Z,17.44
2023-05-23T00:13:57.512Z,17.71
2023-05-23T00:16:24.096Z,17.69
2023-05-23T00:18:51.848Z,17.42
2023-05-23T00:21:18.590Z,17.24
2023-05-23T00:23:45.104Z,17.27
2023-05-23T00:26:11.669Z,17.71
2023-05-23T00:28:38.700Z,17.27
2023-05-23T00:31:05.448Z,17.29
2023-05-23T00:33:33.309Z,16.94
2023-05-23T00:36:02.726Z,16.59
2023-05-23T00:38:29.735Z,15.96
2023-05-23T00:40:56.296Z,16.27
2023-05-23T00:43:22.901Z,16.04
2023-05-23T00:45:49.960Z,15.88
2023-05-23T00:48:17.027Z,15.67
2023-05-23T00:50:43.765Z,15.91
2023-05-23T00:53:10.337Z,15.96
2023-05-23T00:55:37.341Z,15.82
2023-05-23T00:58:03.931Z,15.89
2023-05-23T01:00:30.855Z,15.83
2023-05-23T01:10:23.347Z,15.77
2023-05-23T01:13:17.696Z,15.72
2023-05-23T01:15:55.747Z,15.57
2023-05-23T01:18:26.835Z,15.43
2023-05-23T01:20:57.021Z,15.55
2023-05-23T01:23:47.306Z,15.63
2023-05-23T01:27:06.008Z,15.55
2023-05-23T01:29:37.490Z,15.47
2023-05-23T01:32:07.312Z,15.52
2023-05-23T01:34:36.693Z,15.56
2023-05-23T01:37:08.670Z,15.45
2023-05-23T01:39:35.304Z,15.58
2023-05-23T01:42:02.043Z,15.47
2023-05-23T01:44:29.048Z,15.48
2023-05-23T01:46:55.777Z,15.70
2023-05-23T01:49:24.029Z,15.60
2023-05-23T01:51:50.833Z,15.70
2023-05-23T01:54:19.789Z,15.56
2023-05-23T01:56:47.575Z,15.51
2023-05-23T01:59:14.111Z,15.47
2023-05-23T02:01:41.538Z,15.46
2023-05-23T02:04:08.214Z,15.51
2023-05-23T02:06:34.818Z,15.52
2023-05-23T02:09:01.592Z,15.50
2023-05-23T02:11:28.107Z,15.46
2023-05-23T02:13:54.633Z,15.43
2023-05-23T02:16:21.753Z,15.39
2023-05-23T02:18:49.293Z,15.39
2023-05-23T02:21:15.961Z,15.49
2023-05-23T02:23:42.613Z,15.38
2023-05-23T02:26:09.212Z,15.39
2023-05-23T02:28:35.834Z,15.38
2023-05-23T02:31:02.722Z,15.18
2023-05-23T02:33:29.336Z,15.14
2023-05-23T02:35:55.882Z,15.14
2023-05-23T02:38:22.537Z,15.10
2023-05-23T02:40:50.693Z,15.10
2023-05-23T02:43:17.331Z,14.99
2023-05-23T02:45:44.038Z,14.98
2023-05-23T02:48:12.079Z,14.97
2023-05-23T02:50:38.837Z,14.96
2023-05-23T02:53:05.393Z,15.01
2023-05-23T02:55:32.045Z,14.99
2023-05-23T02:58:01.617Z,14.92
2023-05-23T03:00:28.176Z,14.98
2023-05-23T03:02:54.790Z,15.18
2023-05-23T03:05:21.487Z,15.27
2023-05-23T03:07:48.030Z,15.05
2023-05-23T03:10:14.603Z,14.98
2023-05-23T03:12:41.233Z,14.97
2023-05-23T03:15:08.232Z,15.31
2023-05-23T03:17:34.820Z,15.44
2023-05-23T03:20:01.438Z,15.24
2023-05-23T03:22:27.997Z,15.21
2023-05-23T03:24:54.578Z,15.15
2023-05-23T03:27:21.192Z,14.96
2023-05-23T03:29:48.342Z,15.14
2023-05-23T03:32:15.033Z,15.12
2023-05-23T03:34:41.686Z,14.98
2023-05-23T03:37:08.307Z,14.91
2023-05-23T03:39:34.871Z,14.91
2023-05-23T03:42:01.446Z,14.94
2023-05-23T03:44:28.017Z,14.82
2023-05-23T03:46:54.642Z,14.78
2023-05-23T03:49:21.420Z,14.89
2023-05-23T03:51:47.988Z,15.14
2023-05-23T03:54:14.609Z,15.04
2023-05-23T03:56:41.172Z,14.96
2023-05-23T03:59:07.746Z,14.97
2023-05-23T04:01:34.326Z,14.96
2023-05-23T04:04:01.031Z,15.15
2023-05-23T04:06:30.110Z,15.35
2023-05-23T04:08:56.923Z,15.37
2023-05-23T04:11:23.788Z,15.35
2023-05-23T04:13:52.061Z,15.27
2023-05-23T04:16:18.728Z,15.71
2023-05-23T04:18:47.260Z,15.62
2023-05-23T04:21:14.034Z,15.68
2023-05-23T04:23:40.634Z,15.71
2023-05-23T04:26:07.299Z,15.70
2023-05-23T04:28:34.765Z,15.70
2023-05-23T04:31:03.218Z,15.74
2023-05-23T04:33:30.635Z,15.81
2023-05-23T04:35:57.454Z,16.17
2023-05-23T04:38:25.196Z,15.98
2023-05-23T04:40:54.624Z,16.25
2023-05-23T04:43:21.936Z,16.32
2023-05-23T04:45:49.983Z,16.36
2023-05-23T04:48:17.329Z,16.18
2023-05-23T04:50:44.468Z,16.24
2023-05-23T04:53:11.021Z,15.97
2023-05-23T04:55:37.663Z,15.88
2023-05-23T04:58:04.490Z,15.84
2023-05-23T05:00:31.046Z,15.92
2023-05-23T05:02:57.694Z,15.85
2023-05-23T05:05:24.297Z,16.25
2023-05-23T05:07:51.199Z,16.30
2023-05-23T05:10:17.969Z,16.32
2023-05-23T05:12:49.604Z,16.25
2023-05-23T05:15:17.548Z,16.40
2023-05-23T05:17:44.912Z,16.47
2023-05-23T05:20:12.285Z,16.88
2023-05-23T05:22:43.024Z,17.09
2023-05-23T05:25:10.887Z,17.30
2023-05-23T05:27:40.565Z,17.50
2023-05-23T05:30:08.891Z,17.45
2023-05-23T05:32:35.634Z,17.42
2023-05-23T05:35:03.334Z,17.60
2023-05-23T05:37:30.185Z,17.59
2023-05-23T05:39:56.937Z,17.87
2023-05-23T05:42:23.567Z,17.82
2023-05-23T05:44:50.303Z,17.63
2023-05-23T05:47:16.921Z,17.76
2023-05-23T05:49:43.473Z,17.79
2023-05-23T05:52:10.917Z,17.80
2023-05-23T05:54:37.721Z,17.86
2023-05-23T05:57:04.637Z,17.91
2023-05-23T05:59:32.648Z,17.85
2023-05-23T06:01:59.429Z,17.85
2023-05-23T06:04:26.222Z,17.84
2023-05-23T06:06:52.911Z,18.28
2023-05-23T06:09:19.699Z,18.46
2023-05-23T06:11:46.567Z,18.22
2023-05-23T06:14:13.175Z,18.10
2023-05-23T06:16:40.377Z,17.96
2023-05-23T06:19:08.450Z,18.02
2023-05-23T06:21:35.220Z,17.98
2023-05-23T06:24:01.816Z,17.94
2023-05-23T06:26:28.384Z,17.72
2023-05-23T06:28:54.978Z,17.57
2023-05-23T06:31:21.576Z,17.63
2023-05-23T06:33:48.364Z,17.87
2023-05-23T06:36:15.026Z,17.96
2023-05-23T06:38:41.567Z,17.75
2023-05-23T06:41:08.161Z,17.70
2023-05-23T06:43:34.710Z,17.67
2023-05-23T06:46:01.648Z,17.89
2023-05-23T06:48:28.305Z,17.91
2023-05-23T06:50:55.085Z,17.86
2023-05-23T06:53:21.677Z,18.00
2023-05-23T06:55:48.208Z,18.34
2023-05-23T06:58:14.911Z,18.52
2023-05-23T07:00:41.714Z,18.79
2023-05-23T07:03:08.521Z,18.79
2023-05-23T07:05:38.600Z,18.72
2023-05-23T07:08:07.642Z,18.40
2023-05-23T07:10:35.329Z,18.63
2023-05-23T07:13:02.161Z,18.48
2023-05-23T07:15:28.701Z,18.67
2023-05-23T07:17:56.012Z,18.54
2023-05-23T07:20:22.728Z,18.61
2023-05-23T07:22:51.570Z,18.65
2023-05-23T07:25:18.993Z,18.62
2023-05-23T07:27:45.620Z,18.66
2023-05-23T07:30:12.405Z,18.76
2023-05-23T07:32:39.093Z,19.26
2023-05-23T07:35:06.598Z,19.44
2023-05-23T07:37:33.397Z,19.01
2023-05-23T07:40:01.440Z,18.77
2023-05-23T07:42:28.027Z,18.53
2023-05-23T07:44:54.544Z,18.48
2023-05-23T07:47:21.129Z,18.52
2023-05-23T07:49:47.692Z,18.68
2023-05-23T07:52:14.329Z,18.74
2023-05-23T07:54:40.913Z,18.85
2023-05-23T07:57:07.690Z,18.64
2023-05-23T07:59:34.256Z,18.86
2023-05-23T08:02:00.852Z,18.93
2023-05-23T08:04:27.474Z,18.94
2023-05-23T08:07:05.182Z,19.47
2023-05-23T08:09:32.565Z,19.72
2023-05-23T08:11:59.229Z,19.50
2023-05-23T08:14:42.242Z,19.19
2023-05-23T08:17:14.408Z,19.07
2023-05-23T08:19:42.073Z,19.27
2023-05-23T08:22:08.747Z,19.48
2023-05-23T08:24:35.421Z,19.39
2023-05-23T08:27:02.069Z,19.39
2023-05-23T08:29:28.725Z,19.49
2023-05-23T08:31:55.303Z,19.47
2023-05-23T08:34:21.971Z,19.27
2023-05-23T08:36:48.528Z,19.41
2023-05-23T08:39:15.088Z,19.45
2023-05-23T08:41:41.661Z,19.76
2023-05-23T08:44:08.274Z,19.73
2023-05-23T08:46:41.133Z,20.00
2023-05-23T08:49:08.459Z,19.55
2023-05-23T08:51:37.937Z,19.49
2023-05-23T08:54:06.256Z,19.39
2023-05-23T08:56:33.045Z,19.60
2023-05-23T08:58:59.691Z,19.55
2023-05-23T09:01:26.563Z,19.73
2023-05-23T09:03:53.325Z,19.75
2023-05-23T09:06:21.946Z,19.71
2023-05-23T09:08:48.587Z,19.76
2023-05-23T09:11:15.532Z,19.92
2023-05-23T09:13:42.133Z,19.47
2023-05-23T09:16:12.646Z,19.41
2023-05-23T09:18:44.208Z,19.31
2023-05-23T09:21:12.863Z,19.37
2023-05-23T09:23:41.582Z,18.90
2023-05-23T09:26:13.441Z,19.06
2023-05-23T09:28:43.468Z,18.93
2023-05-23T09:31:13.430Z,18.87
2023-05-23T09:33:42.922Z,18.56
2023-05-23T09:36:09.810Z,18.46
2023-05-23T09:38:41.061Z,18.22
2023-05-23T09:41:08.166Z,18.10
2023-05-23T09:43:34.811Z,18.12
2023-05-23T09:46:07.708Z,18.09
2023-05-23T09:48:34.342Z,18.26
2023-05-23T09:51:05.062Z,18.24
2023-05-23T09:53:32.290Z,18.30
2023-05-23T09:56:11.577Z,18.12
2023-05-23T09:58:39.159Z,18.09
2023-05-23T10:01:10.142Z,18.27
2023-05-23T10:03:48.734Z,17.98
2023-05-23T10:06:42.954Z,17.86
2023-05-23T10:09:15.432Z,18.09
2023-05-23T10:12:20.606Z,18.11
2023-05-23T10:14:54.683Z,18.42
2023-05-23T10:17:33.122Z,18.43
2023-05-23T10:20:12.531Z,18.43
2023-05-23T10:22:40.294Z,18.42
2023-05-23T10:25:08.579Z,18.55
2023-05-23T10:27:35.539Z,18.51
2023-05-23T10:30:02.973Z,18.76
2023-05-23T10:32:31.043Z,19.14
2023-05-23T10:35:36.555Z,19.24
2023-05-23T10:38:21.919Z,19.44
2023-05-23T10:41:03.573Z,19.03
2023-05-23T10:43:53.517Z,18.64
2023-05-23T10:46:24.107Z,18.50
2023-05-23T10:48:57.339Z,18.65
2023-05-23T10:51:24.923Z,18.52
2023-05-23T10:53:54.729Z,18.57
2023-05-23T10:56:23.491Z,18.76
2023-05-23T10:59:00.439Z,18.78
2023-05-23T11:01:27.364Z,19.17
2023-05-23T11:03:55.903Z,19.19
2023-05-23T11:06:39.071Z,19.16
2023-05-23T11:09:19.764Z,18.76
2023-05-23T11:11:53.303Z,18.42
2023-05-23T11:14:45.899Z,18.76
2023-05-23T11:17:12.610Z,18.86
2023-05-23T11:19:39.730Z,19.23
2023-05-23T11:22:09.922Z,19.10
2023-05-23T11:24:53.149Z,19.32
2023-05-23T11:27:39.768Z,19.19
2023-05-23T11:30:13.997Z,18.96
2023-05-23T11:32:41.936Z,18.62
2023-05-23T11:35:10.973Z,18.99
2023-05-23T11:37:40.887Z,18.61
2023-05-23T11:40:28.434Z,18.70
2023-05-23T11:42:55.190Z,18.83
2023-05-23T11:45:25.964Z,18.83
2023-05-23T11:47:52.976Z,18.66
2023-05-23T11:50:24.530Z,18.99
2023-05-23T11:52:51.939Z,19.12
2023-05-23T11:55:22.746Z,18.88
2023-05-23T11:57:51.620Z,19.58
2023-05-23T12:00:19.299Z,19.84
2023-05-23T12:02:48.776Z,19.60
2023-05-23T12:05:15.704Z,20.11
2023-05-23T12:07:42.994Z,19.64
2023-05-23T12:10:11.221Z,19.79
2023-05-23T12:12:42.484Z,20.45
2023-05-23T12:15:10.401Z,20.51
2023-05-23T12:17:38.333Z,20.24
2023-05-23T12:20:06.769Z,19.90
2023-05-23T12:22:33.377Z,19.96
2023-05-23T12:25:00.228Z,20.24
2023-05-23T12:27:32.444Z,20.23
2023-05-23T12:30:13.920Z,20.37
2023-05-23T12:32:41.997Z,19.95
2023-05-23T12:35:14.359Z,19.84
2023-05-23T12:37:43.036Z,19.87
2023-05-23T12:40:14.692Z,19.38
2023-05-23T12:42:54.788Z,19.07
2023-05-23T12:45:31.585Z,18.47
2023-05-23T12:47:58.355Z,18.43
2023-05-23T12:50:25.075Z,18.48
2023-05-23T12:52:52.339Z,18.63
2023-05-23T12:55:19.044Z,18.42
2023-05-23T12:57:45.645Z,18.12
2023-05-23T13:00:12.752Z,18.00
2023-05-23T13:02:39.963Z,17.97
2023-05-23T13:05:07.343Z,17.78
2023-05-23T13:07:34.087Z,17.62
2023-05-23T13:10:01.431Z,17.56
2023-05-23T13:12:28.790Z,17.48
2023-05-23T13:14:55.386Z,17.39
2023-05-23T13:17:22.066Z,17.27
2023-05-23T13:19:48.708Z,17.28
2023-05-23T13:22:15.437Z,17.20
2023-05-23T13:24:43.635Z,17.01
2023-05-23T13:27:10.705Z,16.95
2023-05-23T13:29:37.307Z,16.94
2023-05-23T13:32:04.025Z,16.78
2023-05-23T13:34:30.679Z,16.80
2023-05-23T13:36:57.221Z,16.44
2023-05-23T13:39:23.838Z,16.26
2023-05-23T13:41:50.869Z,16.36
2023-05-23T13:44:17.621Z,16.18
2023-05-23T13:46:44.394Z,16.24
2023-05-23T13:49:11.019Z,16.27
2023-05-23T13:51:37.777Z,16.39
2023-05-23T13:54:04.890Z,16.45
2023-05-23T13:56:32.112Z,16.34
2023-05-23T13:58:59.678Z,16.23
2023-05-23T14:01:26.391Z,16.06
2023-05-23T14:03:53.421Z,15.96
2023-05-23T14:06:20.146Z,16.07
2023-05-23T14:08:46.698Z,16.15
2023-05-23T14:11:13.300Z,16.23
2023-05-23T14:13:39.867Z,16.37
2023-05-23T14:16:06.656Z,16.50
2023-05-23T14:18:33.236Z,16.47
2023-05-23T14:20:59.793Z,16.51
2023-05-23T14:23:26.411Z,16.52
2023-05-23T14:25:52.973Z,16.54
2023-05-23T14:28:19.601Z,16.47
2023-05-23T14:30:46.340Z,16.22
2023-05-23T14:33:12.991Z,16.20
2023-05-23T14:35:39.999Z,16.32
2023-05-23T14:38:06.716Z,16.26
2023-05-23T14:40:33.321Z,16.32
2023-05-23T14:42:59.886Z,16.34
2023-05-23T14:45:26.592Z,16.37
2023-05-23T14:47:53.296Z,16.34
2023-05-23T14:50:19.935Z,16.19
2023-05-23T14:52:46.490Z,15.80
2023-05-23T14:55:13.061Z,15.96
2023-05-23T14:57:39.693Z,16.03
2023-05-23T15:00:08.041Z,16.21
2023-05-23T15:02:35.014Z,16.27
2023-05-23T15:05:01.813Z,16.55
2023-05-23T15:07:28.463Z,16.38
2023-05-23T15:09:55.167Z,16.56
2023-05-23T15:12:22.143Z,16.37
2023-05-23T15:14:48.733Z,16.15
2023-05-23T15:17:20.382Z,15.84
2023-05-23T15:19:49.688Z,15.82
2023-05-23T15:22:34.110Z,15.75
2023-05-23T15:25:03.687Z,15.49
2023-05-23T15:27:30.300Z,15.78
2023-05-23T15:29:56.872Z,15.73
2023-05-23T15:32:24.726Z,15.85
2023-05-23T15:34:51.587Z,15.85
2023-05-23T15:37:18.229Z,16.03
2023-05-23T15:39:44.918Z,15.84
2023-05-23T15:42:11.472Z,15.69
2023-05-23T15:44:38.211Z,15.52
2023-05-23T15:47:05.221Z,15.45
2023-05-23T15:49:31.785Z,15.34
2023-05-23T15:51:58.326Z,15.04
2023-05-23T15:54:24.981Z,14.90
2023-05-23T15:56:51.657Z,14.93
2023-05-23T15:59:18.226Z,14.83
2023-05-23T16:01:44.883Z,14.81
2023-05-23T16:04:11.757Z,14.91
2023-05-23T16:06:39.423Z,14.67
2023-05-23T16:09:06.241Z,14.68
2023-05-23T16:11:32.863Z,14.63
2023-05-23T16:13:59.492Z,14.49
2023-05-23T16:16:26.139Z,14.30
2023-05-23T16:18:53.323Z,14.16
2023-05-23T16:21:20.951Z,14.04
2023-05-23T16:23:48.749Z,13.93
2023-05-23T16:26:16.800Z,13.88
2023-05-23T16:28:43.716Z,13.74
2023-05-23T16:31:16.738Z,13.75
2023-05-23T16:33:44.521Z,13.69
2023-05-23T16:36:11.122Z,13.67
2023-05-23T16:38:37.768Z,13.62
2023-05-23T16:41:04.437Z,13.55
2023-05-23T16:43:31.035Z,13.53
2023-05-23T16:45:57.750Z,13.49
2023-05-23T16:48:24.391Z,13.37
2023-05-23T16:50:51.093Z,13.44
2023-05-23T16:53:17.659Z,13.41
2023-05-23T16:55:46.029Z,13.35
2023-05-23T16:58:12.602Z,13.33
2023-05-23T17:00:39.637Z,13.22
2023-05-23T17:03:06.272Z,13.21
2023-05-23T17:05:33.671Z,13.19
2023-05-23T17:08:00.474Z,13.22
2023-05-23T17:10:27.043Z,13.10
2023-05-23T17:12:53.697Z,13.03
2023-05-23T17:15:20.373Z,12.90
2023-05-23T17:17:47.623Z,12.82
2023-05-23T17:20:14.276Z,12.81
2023-05-23T17:22:41.793Z,12.85
2023-05-23T17:25:08.913Z,12.78
2023-05-23T17:27:35.528Z,12.77
2023-05-23T17:30:04.981Z,12.81
2023-05-23T17:32:31.770Z,12.64
2023-05-23T17:34:58.563Z,12.56
2023-05-23T17:37:26.427Z,12.56
2023-05-23T17:39:55.986Z,12.54
2023-05-23T17:42:24.044Z,12.52
2023-05-23T17:44:50.696Z,12.47
2023-05-23T17:47:18.460Z,12.46
2023-05-23T17:49:45.211Z,12.41
2023-05-23T17:52:14.800Z,12.33
2023-05-23T17:54:42.420Z,12.34
2023-05-23T17:57:09.117Z,12.30
2023-05-23T17:59:36.350Z,12.25
2023-05-23T18:02:04.799Z,12.20
2023-05-23T18:04:31.659Z,12.14
2023-05-23T18:06:58.343Z,12.17
2023-05-23T18:09:25.019Z,12.09
2023-05-23T18:11:51.874Z,12.11
2023-05-23T18:14:18.554Z,12.13
2023-05-23T18:16:45.201Z,12.08
2023-05-23T18:19:11.920Z,12.01
2023-05-23T18:21:38.613Z,11.94
2023-05-23T18:24:05.300Z,11.92
2023-05-23T18:26:31.937Z,11.79
2023-05-23T18:29:00.916Z,11.71
2023-05-23T18:31:27.477Z,11.64
2023-05-23T18:33:54.129Z,11.70
2023-05-23T18:36:20.882Z,11.65
2023-05-23T18:38:47.484Z,11.73
2023-05-23T18:41:15.151Z,11.62
2023-05-23T18:43:41.773Z,11.64
2023-05-23T18:46:08.492Z,11.57
2023-05-23T18:48:35.962Z,11.57
2023-05-23T18:51:02.902Z,11.61
2023-05-23T18:53:29.512Z,11.57
2023-05-23T18:55:56.077Z,11.49
2023-05-23T18:58:22.628Z,11.57
2023-05-23T19:00:49.232Z,11.57
2023-05-23T19:03:16.937Z,11.50
2023-05-23T19:05:43.839Z,11.45
2023-05-23T19:08:10.666Z,11.49
2023-05-23T19:10:37.241Z,11.49
2023-05-23T19:13:03.995Z,11.51
2023-05-23T19:15:30.640Z,11.53
2023-05-23T19:17:57.352Z,11.52
2023-05-23T19:20:23.930Z,11.49
2023-05-23T19:22:52.342Z,11.46
2023-05-23T19:25:20.441Z,11.46
2023-05-23T19:27:47.094Z,11.40
2023-05-23T19:30:13.729Z,11.33
2023-05-23T19:32:40.618Z,11.33
2023-05-23T19:35:08.279Z,11.39
2023-05-23T19:37:35.006Z,11.40
2023-05-23T19:40:01.931Z,11.33
2023-05-23T19:42:28.519Z,11.35
2023-05-23T19:44:55.174Z,11.36
2023-05-23T19:47:21.814Z,11.27
2023-05-23T19:49:48.521Z,11.43
2023-05-23T19:52:15.155Z,11.41
2023-05-23T19:54:41.931Z,11.39
2023-05-23T19:57:08.700Z,11.45
2023-05-23T19:59:35.379Z,11.47
2023-05-23T20:02:01.953Z,11.44
2023-05-23T20:04:28.522Z,11.50
2023-05-23T20:06:56.083Z,11.55
2023-05-23T20:09:23.086Z,11.48
2023-05-23T20:11:49.652Z,11.51
2023-05-23T20:14:16.469Z,11.47
2023-05-23T20:16:43.208Z,11.49
2023-05-23T20:19:10.093Z,11.52
2023-05-23T20:21:36.842Z,11.48
2023-05-23T20:24:03.447Z,11.50
2023-05-23T20:26:30.021Z,11.44
2023-05-23T20:28:56.632Z,11.50
2023-05-23T20:31:23.208Z,11.51
2023-05-23T20:33:49.882Z,11.61
2023-05-23T20:36:19.573Z,11.56
2023-05-23T20:38:46.769Z,11.56
2023-05-23T20:41:14.224Z,11.44
2023-05-23T20:43:41.050Z,11.50
2023-05-23T20:46:11.665Z,11.49
2023-05-23T20:48:38.721Z,11.46
2023-05-23T20:51:05.939Z,11.57
2023-05-23T20:53:33.508Z,11.56
2023-05-23T20:56:00.737Z,11.42
2023-05-23T20:58:27.488Z,11.48
2023-05-23T21:00:54.380Z,11.40
2023-05-23T21:03:21.195Z,11.37
2023-05-23T21:05:48.086Z,11.39
2023-05-23T21:08:14.642Z,11.43
2023-05-23T21:10:41.660Z,11.39
2023-05-23T21:13:08.479Z,11.40
2023-05-23T21:15:35.101Z,11.46
2023-05-23T21:18:01.727Z,11.39
2023-05-23T21:20:29.200Z,11.37
2023-05-23T21:22:55.815Z,11.37
2023-05-23T21:25:22.353Z,11.43
2023-05-23T21:27:48.980Z,11.37
2023-05-23T21:30:15.725Z,11.43
2023-05-23T21:32:43.550Z,11.43
2023-05-23T21:35:10.425Z,11.40
2023-05-23T21:37:37.048Z,11.43
2023-05-23T21:40:03.945Z,11.37
2023-05-23T21:42:31.071Z,11.36
2023-05-23T21:44:57.743Z,11.38
2023-05-23T21:47:25.137Z,11.40
2023-05-23T21:49:51.928Z,11.39
2023-05-23T21:52:18.607Z,11.44
2023-05-23T21:54:47.086Z,11.37
2023-05-23T21:57:13.786Z,11.45
2023-05-23T21:59:41.512Z,11.47
2023-05-23T22:02:08.164Z,11.47
2023-05-23T22:04:34.759Z,11.41
2023-05-23T22:07:01.396Z,11.46
2023-05-23T22:09:28.019Z,11.37
2023-05-23T22:11:54.586Z,11.36
2023-05-23T22:14:21.557Z,11.47
2023-05-23T22:16:50.041Z,11.47
2023-05-23T22:19:19.901Z,11.45
2023-05-23T22:21:47.225Z,11.36
2023-05-23T22:24:13.841Z,11.42
2023-05-23T22:26:40.415Z,11.45
2023-05-23T22:29:07.206Z,11.44
2023-05-23T22:31:35.453Z,11.42
2023-05-23T22:34:02.240Z,11.48
2023-05-23T22:36:29.012Z,11.45
2023-05-23T22:38:56.209Z,11.41
2023-05-23T22:41:23.588Z,11.45
2023-05-23T22:43:50.638Z,11.53
2023-05-23T22:46:17.377Z,11.48
2023-05-23T22:48:44.965Z,11.40
2023-05-23T22:51:13.291Z,11.36
2023-05-23T22:53:39.958Z,11.42
2023-05-23T22:56:06.780Z,11.47
2023-05-23T22:58:33.420Z,11.50
2023-05-23T23:00:59.970Z,11.43
2023-05-23T23:03:26.744Z,11.36
2023-05-23T23:05:53.364Z,11.47
2023-05-23T23:08:19.962Z,11.37
2023-05-23T23:10:46.755Z,11.32
2023-05-23T23:13:16.095Z,11.31
2023-05-23T23:15:43.080Z,11.30
2023-05-23T23:18:09.943Z,11.25
2023-05-23T23:20:36.686Z,11.21
2023-05-23T23:23:03.384Z,11.18
2023-05-23T23:25:30.702Z,11.09
2023-05-23T23:27:57.253Z,11.07
2023-05-23T23:30:23.933Z,11.10
2023-05-23T23:32:50.563Z,10.99
2023-05-23T23:35:17.194Z,11.04
2023-05-23T23:37:43.938Z,10.89
2023-05-23T23:40:11.116Z,10.95
2023-05-23T23:42:37.638Z,10.91
2023-05-23T23:45:05.059Z,10.85
2023-05-23T23:47:32.600Z,10.74
2023-05-23T23:49:59.243Z,10.69
2023-05-23T23:52:26.069Z,10.72
2023-05-23T23:54:52.784Z,10.69
2023-05-23T23:57:19.445Z,10.68
2023-05-23T23:59:46.125Z,10.65
